Time;durP1;ratioP1;P1;durP2;ratioP2;P2;SDS_P1;SDS_P2;PMS_P1;PMS_P2;Temp;Humidity;BMP_temperature;BMP_pressure;BME280_temperature;BME280_humidity;BME280_pressure;Samples;Min_cycle;Max_cycle;Signal;HPM_P1;HPM_P2
2021/03/12 05:02:07;;;;;;;;;;;7.00;99.90;;;;;;5259096;22;19932;-68
2021/03/12 05:04:34;;;;;;;;;;;7.00;99.90;;;;;;5018047;28;19936;-68
2021/03/12 05:07:00;;;;;;;;;;;7.10;99.90;;;;;;5017720;28;19979;-68
2021/03/12 05:09:26;;;;;;;;;;;7.10;99.90;;;;;;5018094;28;19932;-69
2021/03/12 05:11:52;;;;;;;;;;;7.10;99.90;;;;;;5018122;28;19926;-68
2021/03/12 05:14:19;;;;;;;;;;;7.10;99.90;;;;;;5018083;28;19925;-68
2021/03/12 05:16:45;;;;;;;;;;;7.10;99.90;;;;;;5017986;28;19926;-68
2021/03/12 05:19:12;;;;;;;;;;;7.10;99.90;;;;;;5017605;28;19925;-68
2021/03/12 05:21:38;;;;;;;;;;;7.10;99.90;;;;;;5017262;28;19925;-68
2021/03/12 05:24:05;;;;;;;;;;;6.90;99.90;;;;;;5017671;28;19925;-68
2021/03/12 05:26:31;;;;;;;;;;;6.90;99.90;;;;;;5017733;28;19949;-68
2021/03/12 05:28:57;;;;;;;;;;;6.80;99.90;;;;;;5017582;28;19930;-69
2021/03/12 05:31:23;;;;;;;;;;;6.80;99.90;;;;;;5017428;28;19929;-68
2021/03/12 05:33:51;;;;;;;;;;;6.80;99.90;;;;;;5017582;28;19943;-68
2021/03/12 05:36:18;;;;;;;;;;;6.80;99.90;;;;;;5017224;28;19925;-68
2021/03/12 05:38:44;;;;;;;;;;;6.80;99.90;;;;;;5017213;28;19976;-68
2021/03/12 05:41:10;;;;;;;;;;;6.80;99.90;;;;;;5017778;28;19929;-67
2021/03/12 05:43:36;;;;;;;;;;;6.80;99.90;;;;;;5017500;28;19926;-68
2021/03/12 05:46:03;;;;;;;;;;;6.90;99.90;;;;;;5017941;28;19933;-68
2021/03/12 05:48:29;;;;;;;;;;;6.80;99.90;;;;;;5016621;28;19926;-68
2021/03/12 05:50:57;;;;;;;;;;;6.90;99.90;;;;;;5018153;28;19926;-67
2021/03/12 05:53:24;;;;;;;;;;;6.80;99.90;;;;;;5017446;28;19971;-67
2021/03/12 05:55:50;;;;;;;;;;;6.90;99.90;;;;;;5019302;28;19926;-67
2021/03/12 05:58:17;;;;;;;;;;;6.80;99.90;;;;;;5022342;28;19984;-68
2021/03/12 06:00:43;;;;;;;;;;;6.80;99.90;;;;;;5022532;28;19925;-68
2021/03/12 06:03:09;;;;;;;;;;;6.90;99.90;;;;;;5018751;28;20299;-69
2021/03/12 06:05:35;;;;;;;;;;;6.90;99.90;;;;;;5016570;28;20303;-67
2021/03/12 06:08:01;;;;;;;;;;;6.90;99.90;;;;;;5015980;28;20347;-67
2021/03/12 06:10:28;;;;;;;;;;;7.00;99.90;;;;;;5015846;28;20292;-69
2021/03/12 06:12:55;;;;;;;;;;;7.00;99.90;;;;;;5016206;28;19925;-67
2021/03/12 06:15:31;;;;;;;;;;;7.00;99.90;;;;;;5016247;28;20020;-68
2021/03/12 06:17:57;;;;;;;;;;;6.90;99.90;;;;;;5015880;28;19925;-68
2021/03/12 06:20:23;;;;;;;;;;;6.90;99.90;;;;;;5015725;28;19932;-68
2021/03/12 06:22:50;;;;;;;;;;;6.90;99.90;;;;;;5015966;28;19926;-68
2021/03/12 06:25:17;;;;;;;;;;;7.00;99.90;;;;;;5019302;28;19966;-67
2021/03/12 06:27:45;;;;;;;;;;;7.10;99.90;;;;;;5028379;28;20371;-67
2021/03/12 06:30:13;;;;;;;;;;;7.20;99.90;;;;;;5029132;28;19933;-67
2021/03/12 06:32:41;;;;;;;;;;;7.30;99.90;;;;;;5027446;28;19925;-68
2021/03/12 06:35:08;;;;;;;;;;;7.40;99.90;;;;;;5022408;28;19931;-67
2021/03/12 06:37:35;;;;;;;;;;;7.50;99.90;;;;;;5016819;28;20261;-68
2021/03/12 06:40:11;;;;;;;;;;;7.50;99.90;;;;;;5016105;28;20376;-68
2021/03/12 06:42:37;;;;;;;;;;;7.60;99.90;;;;;;5015851;28;20392;-67
2021/03/12 06:45:05;;;;;;;;;;;7.60;99.90;;;;;;5016032;28;20311;-68
2021/03/12 06:47:31;;;;;;;;;;;7.60;99.90;;;;;;5035055;28;19910;-67
2021/03/12 06:49:58;;;;;;;;;;;7.50;99.90;;;;;;5038535;28;19910;-67
2021/03/12 06:52:33;;;;;;;;;;;7.40;99.90;;;;;;5038700;28;19985;-68
2021/03/12 06:54:59;;;;;;;;;;;7.40;99.90;;;;;;5038662;28;19916;-68
2021/03/12 06:57:25;;;;;;;;;;;7.40;99.90;;;;;;5036330;28;19909;-67
2021/03/12 06:59:58;;;;;;;;;;;7.40;99.90;;;;;;5019673;28;20340;-67
2021/03/12 07:02:31;;;;;;;;;;;7.40;99.90;;;;;;5017796;28;19932;-67
2021/03/12 07:04:57;;;;;;;;;;;7.60;99.90;;;;;;5018188;28;20281;-67
2021/03/12 07:07:33;;;;;;;;;;;7.60;99.90;;;;;;5018281;28;20354;-68
2021/03/12 07:09:59;;;;;;;;;;;7.70;99.90;;;;;;5016126;28;20275;-67
2021/03/12 07:12:41;;;;;;;;;;;7.70;99.90;;;;;;5015903;28;19932;-67
2021/03/12 07:15:07;;;;;;;;;;;7.70;99.90;;;;;;5017465;28;19932;-67
2021/03/12 07:17:35;;;;;;;;;;;7.90;99.90;;;;;;5019953;28;19930;-67
2021/03/12 07:20:01;;;;;;;;;;;8.20;99.90;;;;;;5020755;28;19972;-67
2021/03/12 07:22:29;;;;;;;;;;;8.60;99.90;;;;;;5017263;28;19925;-67
2021/03/12 07:24:56;;;;;;;;;;;8.80;99.90;;;;;;5015773;28;20339;-66
2021/03/12 07:27:23;;;;;;;;;;;8.90;99.90;;;;;;5017893;28;20395;-66
2021/03/12 07:29:51;;;;;;;;;;;9.00;99.90;;;;;;5018355;28;20132;-67
2021/03/12 07:32:19;;;;;;;;;;;8.90;99.90;;;;;;5015477;28;19933;-67
2021/03/12 07:34:46;;;;;;;;;;;8.80;99.90;;;;;;5015572;28;19925;-67
2021/03/12 07:37:12;;;;;;;;;;;8.70;99.90;;;;;;5025090;28;19933;-67
2021/03/12 07:39:40;;;;;;;;;;;8.50;99.90;;;;;;5023597;28;19925;-67
2021/03/12 07:42:08;;;;;;;;;;;8.30;99.90;;;;;;5016459;28;20300;-67
2021/03/12 07:44:34;;;;;;;;;;;8.10;99.90;;;;;;5015680;28;20380;-66
2021/03/12 07:47:00;;;;;;;;;;;8.00;99.90;;;;;;5015873;28;19925;-67
2021/03/12 07:49:33;;;;;;;;;;;8.10;99.90;;;;;;5015980;28;19926;-67
2021/03/12 07:52:00;;;;;;;;;;;8.00;99.90;;;;;;5015209;28;19949;-64
2021/03/12 07:54:42;;;;;;;;;;;8.00;99.90;;;;;;5014751;28;19929;-65
2021/03/12 07:57:08;;;;;;;;;;;8.30;99.90;;;;;;5015087;28;19926;-65
2021/03/12 07:59:49;;;;;;;;;;;8.70;99.90;;;;;;5014911;28;19937;-65
2021/03/12 08:02:16;;;;;;;;;;;9.00;99.90;;;;;;5014523;28;20267;-65
2021/03/12 08:04:43;;;;;;;;;;;9.20;99.90;;;;;;5015700;28;19932;-67
2021/03/12 08:07:27;;;;;;;;;;;9.10;99.90;;;;;;5016100;28;19925;-67
2021/03/12 08:09:54;;;;;;;;;;;8.90;99.90;;;;;;5015537;28;19930;-67
2021/03/12 08:12:38;;;;;;;;;;;8.80;99.90;;;;;;5015705;28;19933;-67
2021/03/12 08:15:12;;;;;;;;;;;8.20;99.90;;;;;;5028543;28;19929;-67
2021/03/12 08:17:38;;;;;;;;;;;8.00;99.90;;;;;;5033089;28;19909;-67
2021/03/12 08:20:19;;;;;;;;;;;7.70;99.90;;;;;;5033684;28;19925;-66
2021/03/12 08:22:46;;;;;;;;;;;8.20;99.90;;;;;;5035524;28;19925;-67
2021/03/12 08:25:13;;;;;;;;;;;9.20;99.90;;;;;;5022492;28;19971;-67
2021/03/12 08:27:41;;;;;;;;;;;10.50;99.90;;;;;;5019968;28;19925;-67
2021/03/12 08:30:08;;;;;;;;;;;12.10;99.90;;;;;;5019088;28;19933;-67
2021/03/12 08:32:38;;;;;;;;;;;12.80;99.90;;;;;;5020014;28;19930;-67
2021/03/12 08:35:05;;;;;;;;;;;13.70;99.90;;;;;;5018584;28;19925;-67
2021/03/12 08:37:38;;;;;;;;;;;14.10;99.90;;;;;;5018734;28;19926;-67
2021/03/12 08:40:21;;;;;;;;;;;14.50;99.90;;;;;;5018151;28;19929;-67
2021/03/12 08:42:52;;;;;;;;;;;13.80;99.90;;;;;;5017908;28;19965;-67
2021/03/12 08:45:31;;;;;;;;;;;13.70;99.90;;;;;;5018349;28;19984;-66
2021/03/12 08:48:01;;;;;;;;;;;12.60;99.90;;;;;;5018170;28;19926;-67
2021/03/12 08:50:27;;;;;;;;;;;12.20;99.90;;;;;;5018534;28;19948;-67
2021/03/12 08:52:53;;;;;;;;;;;11.80;99.90;;;;;;5018533;28;19926;-66
2021/03/12 08:55:19;;;;;;;;;;;11.60;99.90;;;;;;5018613;28;19925;-67
2021/03/12 08:57:46;;;;;;;;;;;11.00;99.90;;;;;;5018255;28;19925;-66
2021/03/12 09:00:14;;;;;;;;;;;10.90;99.90;;;;;;5018037;28;19926;-67
2021/03/12 09:02:40;;;;;;;;;;;10.60;99.90;;;;;;5017098;28;20380;-67
2021/03/12 09:05:21;;;;;;;;;;;10.50;99.90;;;;;;5017486;28;19995;-67
2021/03/12 09:07:54;;;;;;;;;;;10.40;99.90;;;;;;5017625;28;19925;-66
2021/03/12 09:10:25;;;;;;;;;;;10.30;99.90;;;;;;5017358;28;20392;-66
2021/03/12 09:12:52;;;;;;;;;;;10.10;99.90;;;;;;5018384;28;19929;-66
2021/03/12 09:15:21;;;;;;;;;;;10.10;99.90;;;;;;5017491;28;19932;-66
2021/03/12 09:17:47;;;;;;;;;;;10.30;99.90;;;;;;5016915;28;20331;-66
2021/03/12 09:20:14;;;;;;;;;;;10.40;99.90;;;;;;5017367;28;19929;-66
2021/03/12 09:22:40;;;;;;;;;;;10.50;99.90;;;;;;5017061;28;19953;-67
2021/03/12 09:25:07;;;;;;;;;;;10.50;99.90;;;;;;5016880;28;20315;-67
2021/03/12 09:27:33;;;;;;;;;;;10.80;99.90;;;;;;5017272;28;19929;-67
2021/03/12 09:29:59;;;;;;;;;;;10.70;99.90;;;;;;5017345;28;19932;-67
2021/03/12 09:32:36;;;;;;;;;;;10.70;99.90;;;;;;5016785;28;19925;-67
2021/03/12 09:35:12;;;;;;;;;;;10.70;99.90;;;;;;5023635;28;20009;-67
2021/03/12 09:37:41;;;;;;;;;;;10.60;99.90;;;;;;5026935;28;19933;-67
2021/03/12 09:40:08;;;;;;;;;;;10.50;99.90;;;;;;5018342;28;19925;-68
2021/03/12 09:42:34;;;;;;;;;;;10.30;99.90;;;;;;5018559;28;19937;-68
2021/03/12 09:45:01;;;;;;;;;;;10.20;99.90;;;;;;5018643;28;20296;-67
2021/03/12 09:47:27;;;;;;;;;;;10.00;99.90;;;;;;5018872;28;19925;-67
2021/03/12 09:49:53;;;;;;;;;;;9.90;99.90;;;;;;5019396;28;19925;-66
2021/03/12 09:52:20;;;;;;;;;;;9.90;99.90;;;;;;5018747;28;19976;-67
2021/03/12 09:54:47;;;;;;;;;;;10.00;99.90;;;;;;5019135;28;20380;-67
2021/03/12 09:57:17;;;;;;;;;;;10.00;99.90;;;;;;5019944;28;19930;-67
2021/03/12 09:59:47;;;;;;;;;;;10.10;99.90;;;;;;5019012;28;19937;-67
2021/03/12 10:02:14;;;;;;;;;;;10.30;99.90;;;;;;5018323;28;19926;-68
2021/03/12 10:04:41;;;;;;;;;;;10.40;99.90;;;;;;5018711;28;19925;-67
2021/03/12 10:07:09;;;;;;;;;;;10.40;99.90;;;;;;5018182;28;19929;-67
2021/03/12 10:09:35;;;;;;;;;;;10.30;99.90;;;;;;5018525;28;20273;-68
2021/03/12 10:12:02;;;;;;;;;;;10.20;99.90;;;;;;5019163;28;19925;-67
2021/03/12 10:14:33;;;;;;;;;;;10.10;99.90;;;;;;5019400;28;19925;-67
2021/03/12 10:17:13;;;;;;;;;;;10.30;99.90;;;;;;5018830;28;19963;-67
2021/03/12 10:19:44;;;;;;;;;;;11.10;99.90;;;;;;5018016;28;19926;-67
2021/03/12 10:22:16;;;;;;;;;;;11.80;99.90;;;;;;5018972;28;19926;-68
2021/03/12 10:24:42;;;;;;;;;;;12.80;99.90;;;;;;5018967;28;19926;-67
2021/03/12 10:27:08;;;;;;;;;;;13.70;99.90;;;;;;5018159;28;19925;-66
2021/03/12 10:29:37;;;;;;;;;;;14.50;99.90;;;;;;5019662;28;19934;-67
2021/03/12 10:32:06;;;;;;;;;;;15.10;99.90;;;;;;5018629;28;19976;-67
2021/03/12 10:34:42;;;;;;;;;;;15.40;95.10;;;;;;5018242;28;19932;-67
2021/03/12 10:37:13;;;;;;;;;;;15.20;95.40;;;;;;5018841;28;19925;-66
2021/03/12 10:39:39;;;;;;;;;;;14.50;94.70;;;;;;5018808;28;19925;-66
2021/03/12 10:42:06;;;;;;;;;;;14.00;95.80;;;;;;5017937;28;19932;-67
2021/03/12 10:44:47;;;;;;;;;;;13.50;96.00;;;;;;5017608;28;19948;-67
2021/03/12 10:47:13;;;;;;;;;;;12.90;95.90;;;;;;5018544;28;19952;-67
2021/03/12 10:49:39;;;;;;;;;;;12.20;96.10;;;;;;5017693;28;20415;-67
2021/03/12 10:52:05;;;;;;;;;;;11.70;97.10;;;;;;5017684;28;20384;-67
2021/03/12 10:54:32;;;;;;;;;;;11.80;97.80;;;;;;5016561;28;19992;-67
2021/03/12 10:56:58;;;;;;;;;;;12.40;97.70;;;;;;5017191;28;20384;-67
2021/03/12 10:59:24;;;;;;;;;;;13.00;95.80;;;;;;5016872;28;19933;-67
2021/03/12 11:01:50;;;;;;;;;;;13.30;94.70;;;;;;5020219;28;19971;-67
2021/03/12 11:04:18;;;;;;;;;;;12.90;94.00;;;;;;5024255;28;19932;-67
2021/03/12 11:06:44;;;;;;;;;;;12.80;93.70;;;;;;5023878;28;19951;-67
2021/03/12 11:09:12;;;;;;;;;;;12.90;95.20;;;;;;5023574;28;19925;-67
2021/03/12 11:11:41;;;;;;;;;;;13.00;94.20;;;;;;5020441;28;19925;-68
2021/03/12 11:14:07;;;;;;;;;;;13.00;95.70;;;;;;5019566;28;19926;-67
2021/03/12 11:16:33;;;;;;;;;;;13.10;95.40;;;;;;5018909;28;20407;-68
2021/03/12 11:18:59;;;;;;;;;;;13.00;95.60;;;;;;5018546;28;19926;-67
2021/03/12 11:21:28;;;;;;;;;;;13.10;95.80;;;;;;5017837;28;19925;-68
2021/03/12 11:23:54;;;;;;;;;;;12.90;95.40;;;;;;5017660;28;19936;-67
2021/03/12 11:26:21;;;;;;;;;;;12.50;94.50;;;;;;5017865;28;19992;-67
2021/03/12 11:28:48;;;;;;;;;;;12.30;94.10;;;;;;5018378;28;20261;-67
2021/03/12 11:31:14;;;;;;;;;;;12.00;94.00;;;;;;5017962;28;19929;-67
2021/03/12 11:33:40;;;;;;;;;;;11.40;95.50;;;;;;5028876;28;19926;-68
2021/03/12 11:36:07;;;;;;;;;;;11.30;96.40;;;;;;5025610;28;20364;-68
2021/03/12 11:38:34;;;;;;;;;;;11.20;97.80;;;;;;5017060;28;19926;-68
2021/03/12 11:41:00;;;;;;;;;;;11.10;98.40;;;;;;5017338;28;19925;-67
2021/03/12 11:43:26;;;;;;;;;;;11.10;98.10;;;;;;5017679;28;19925;-67
2021/03/12 11:45:53;;;;;;;;;;;10.70;99.60;;;;;;5016997;28;20384;-67
2021/03/12 11:48:21;;;;;;;;;;;10.70;99.70;;;;;;5019976;28;19940;-68
2021/03/12 11:50:48;;;;;;;;;;;10.60;99.90;;;;;;5022368;28;19926;-68
2021/03/12 11:53:14;;;;;;;;;;;10.80;99.90;;;;;;5021920;28;20327;-67
2021/03/12 11:55:40;;;;;;;;;;;11.30;99.90;;;;;;5022587;28;20004;-68
2021/03/12 11:58:06;;;;;;;;;;;11.80;97.90;;;;;;5026259;28;19926;-67
2021/03/12 12:00:32;;;;;;;;;;;12.10;95.90;;;;;;5025906;28;19925;-66
2021/03/12 12:03:00;;;;;;;;;;;12.50;97.30;;;;;;5024814;28;20388;-67
2021/03/12 12:05:26;;;;;;;;;;;12.90;95.30;;;;;;5025655;28;20300;-66
2021/03/12 12:07:52;;;;;;;;;;;13.00;92.20;;;;;;5023937;28;19925;-67
2021/03/12 12:10:19;;;;;;;;;;;13.40;93.40;;;;;;5025149;28;19933;-67
2021/03/12 12:12:47;;;;;;;;;;;13.70;92.00;;;;;;5046333;22;19940;-68
2021/03/12 12:15:16;;;;;;;;;;;13.50;90.90;;;;;;5018258;28;19926;-69
2021/03/12 12:17:42;;;;;;;;;;;13.10;91.20;;;;;;5018209;28;19932;-69
2021/03/12 12:20:10;;;;;;;;;;;13.30;92.40;;;;;;5018120;28;19968;-69
2021/03/12 12:22:36;;;;;;;;;;;13.30;90.90;;;;;;5017746;28;19925;-73
2021/03/12 12:25:03;;;;;;;;;;;13.40;91.30;;;;;;5018161;28;19925;-70
2021/03/12 12:27:29;;;;;;;;;;;13.10;89.20;;;;;;5017773;28;19952;-68
2021/03/12 12:29:55;;;;;;;;;;;12.80;90.00;;;;;;5027870;28;19929;-68
2021/03/12 12:32:21;;;;;;;;;;;12.40;91.10;;;;;;5027049;28;19925;-69
2021/03/12 12:34:47;;;;;;;;;;;12.20;92.30;;;;;;5017977;28;19986;-68
2021/03/12 12:37:14;;;;;;;;;;;12.10;94.60;;;;;;5017547;28;19932;-69
2021/03/12 12:39:40;;;;;;;;;;;12.50;94.40;;;;;;5017443;28;19926;-69
2021/03/12 12:42:06;;;;;;;;;;;13.20;96.10;;;;;;5017694;28;19929;-67
2021/03/12 12:44:33;;;;;;;;;;;13.60;93.40;;;;;;5017529;28;19926;-67
2021/03/12 12:46:59;;;;;;;;;;;13.80;89.00;;;;;;5017130;28;20425;-69
2021/03/12 12:49:25;;;;;;;;;;;14.00;93.30;;;;;;5016973;28;20336;-69
2021/03/12 12:51:51;;;;;;;;;;;14.20;87.50;;;;;;5017344;28;19948;-68
2021/03/12 12:54:18;;;;;;;;;;;14.60;90.00;;;;;;5017305;28;19976;-68
2021/03/12 12:56:44;;;;;;;;;;;14.80;86.60;;;;;;5017243;28;19933;-67
2021/03/12 12:59:10;;;;;;;;;;;14.90;82.30;;;;;;5017011;28;19926;-67
2021/03/12 13:01:36;;;;;;;;;;;14.60;80.10;;;;;;5017222;28;19932;-67
2021/03/12 13:04:02;;;;;;;;;;;14.10;77.00;;;;;;5016856;28;19930;-67
2021/03/12 13:06:28;;;;;;;;;;;13.90;79.60;;;;;;5017038;28;19926;-67
2021/03/12 13:08:55;;;;;;;;;;;13.80;78.30;;;;;;5015943;28;19938;-67
2021/03/12 13:11:22;;;;;;;;;;;13.20;79.20;;;;;;5016813;28;19979;-68
2021/03/12 13:13:48;;;;;;;;;;;13.00;82.20;;;;;;5016440;28;20304;-67
2021/03/12 13:16:16;;;;;;;;;;;13.30;83.10;;;;;;5016889;28;19925;-68
2021/03/12 13:18:42;;;;;;;;;;;13.10;80.20;;;;;;5016905;28;20003;-68
2021/03/12 13:21:09;;;;;;;;;;;13.10;82.20;;;;;;5016690;28;20537;-68
2021/03/12 13:23:37;;;;;;;;;;;13.00;80.50;;;;;;5016760;28;19933;-68
2021/03/12 13:26:04;;;;;;;;;;;12.60;82.20;;;;;;5016644;28;19925;-68
2021/03/12 13:28:30;;;;;;;;;;;12.50;84.50;;;;;;5016541;28;19926;-68
2021/03/12 13:30:56;;;;;;;;;;;12.90;86.50;;;;;;5016583;28;19925;-69
2021/03/12 13:33:23;;;;;;;;;;;13.20;81.20;;;;;;5016593;28;19932;-68
2021/03/12 13:35:49;;;;;;;;;;;13.10;81.60;;;;;;5016331;28;19929;-68
2021/03/12 13:38:16;;;;;;;;;;;12.70;82.00;;;;;;5016479;28;19926;-68
2021/03/12 13:40:42;;;;;;;;;;;12.60;82.50;;;;;;5016506;28;19933;-68
2021/03/12 13:43:08;;;;;;;;;;;12.60;84.50;;;;;;5016381;28;19978;-68
2021/03/12 13:45:35;;;;;;;;;;;12.40;82.40;;;;;;5016255;28;19925;-68
2021/03/12 13:48:01;;;;;;;;;;;12.30;81.90;;;;;;5015916;28;20324;-68
2021/03/12 13:50:28;;;;;;;;;;;12.30;80.50;;;;;;5016176;28;19925;-68
2021/03/12 13:52:54;;;;;;;;;;;12.10;79.70;;;;;;5016217;28;19929;-67
2021/03/12 13:55:20;;;;;;;;;;;12.10;81.70;;;;;;5016057;28;19925;-68
2021/03/12 13:57:47;;;;;;;;;;;11.90;82.20;;;;;;5016174;28;19980;-67
2021/03/12 14:00:13;;;;;;;;;;;12.00;84.50;;;;;;5016291;28;19925;-67
2021/03/12 14:02:40;;;;;;;;;;;12.20;83.70;;;;;;5015605;28;20269;-67
2021/03/12 14:05:08;;;;;;;;;;;12.00;81.10;;;;;;5015916;28;19926;-67
2021/03/12 14:07:34;;;;;;;;;;;11.90;81.90;;;;;;5015661;28;19926;-68
2021/03/12 14:10:00;;;;;;;;;;;11.70;83.30;;;;;;5015837;28;19932;-68
2021/03/12 14:12:26;;;;;;;;;;;11.30;83.70;;;;;;5015713;28;19925;-68
2021/03/12 14:14:52;;;;;;;;;;;11.30;84.70;;;;;;5015949;28;19933;-68
2021/03/12 14:17:18;;;;;;;;;;;11.20;85.80;;;;;;5016189;28;19926;-68
2021/03/12 14:19:45;;;;;;;;;;;11.20;87.70;;;;;;5015397;28;19926;-68
2021/03/12 14:22:11;;;;;;;;;;;11.00;86.80;;;;;;5015559;28;19926;-67
2021/03/12 14:24:38;;;;;;;;;;;11.10;88.30;;;;;;5015728;28;19925;-68
2021/03/12 14:27:04;;;;;;;;;;;11.00;87.60;;;;;;5015617;28;19926;-68
2021/03/12 14:29:30;;;;;;;;;;;10.90;89.80;;;;;;5015757;28;19926;-69
2021/03/12 14:31:56;;;;;;;;;;;10.80;91.10;;;;;;5015440;28;19933;-67
2021/03/12 14:34:23;;;;;;;;;;;10.90;91.70;;;;;;5015029;28;20410;-67
2021/03/12 14:36:50;;;;;;;;;;;11.10;91.90;;;;;;5015386;28;19952;-67
2021/03/12 14:39:17;;;;;;;;;;;11.60;93.30;;;;;;5015292;28;20300;-67
2021/03/12 14:41:43;;;;;;;;;;;12.10;92.10;;;;;;5015028;28;20376;-67
2021/03/12 14:44:09;;;;;;;;;;;12.40;91.00;;;;;;5014748;28;20411;-68
2021/03/12 14:46:35;;;;;;;;;;;12.50;91.50;;;;;;5015201;28;19926;-67
2021/03/12 14:49:01;;;;;;;;;;;12.50;90.40;;;;;;5015245;28;19933;-68
2021/03/12 14:51:27;;;;;;;;;;;12.40;90.40;;;;;;5015079;28;19929;-68
2021/03/12 14:53:54;;;;;;;;;;;12.30;89.40;;;;;;5014975;28;19925;-68
2021/03/12 14:56:21;;;;;;;;;;;12.20;88.80;;;;;;5015001;28;19971;-68
2021/03/12 14:58:47;;;;;;;;;;;12.10;90.00;;;;;;5015281;28;19925;-67
2021/03/12 15:01:13;;;;;;;;;;;12.10;90.30;;;;;;5014911;28;19932;-67
2021/03/12 15:03:39;;;;;;;;;;;12.00;90.00;;;;;;5014841;28;19929;-68
2021/03/12 15:06:05;;;;;;;;;;;11.90;88.50;;;;;;5015002;28;19925;-67
2021/03/12 15:08:31;;;;;;;;;;;12.00;90.40;;;;;;5014517;28;20411;-68
2021/03/12 15:10:58;;;;;;;;;;;12.00;90.00;;;;;;5014413;28;19933;-68
2021/03/12 15:13:24;;;;;;;;;;;12.00;90.60;;;;;;5014592;28;19925;-68
2021/03/12 15:15:50;;;;;;;;;;;11.80;90.10;;;;;;5014697;28;19932;-69
2021/03/12 15:18:17;;;;;;;;;;;11.70;90.50;;;;;;5014717;28;19929;-67
2021/03/12 15:20:43;;;;;;;;;;;11.70;91.10;;;;;;5014723;28;19947;-68
2021/03/12 15:23:09;;;;;;;;;;;11.70;91.30;;;;;;5014559;28;19929;-67
2021/03/12 15:25:36;;;;;;;;;;;11.90;91.70;;;;;;5014530;28;19925;-68
2021/03/12 15:28:03;;;;;;;;;;;12.00;91.60;;;;;;5014549;28;19925;-68
2021/03/12 15:30:30;;;;;;;;;;;12.00;92.10;;;;;;5013916;28;19933;-69
2021/03/12 15:32:56;;;;;;;;;;;12.00;91.60;;;;;;5014374;28;19925;-69
2021/03/12 15:35:24;;;;;;;;;;;11.80;90.80;;;;;;5014449;28;19925;-68
2021/03/12 15:37:50;;;;;;;;;;;11.60;92.00;;;;;;5014446;28;19984;-67
2021/03/12 15:40:17;;;;;;;;;;;11.60;91.30;;;;;;5014096;28;20369;-69
2021/03/12 15:42:43;;;;;;;;;;;11.50;91.10;;;;;;5014287;28;19947;-68
2021/03/12 15:45:11;;;;;;;;;;;11.50;92.20;;;;;;5014359;28;19944;-67
2021/03/12 15:47:38;;;;;;;;;;;11.30;92.20;;;;;;5014380;28;19932;-68
2021/03/12 15:50:04;;;;;;;;;;;11.20;92.20;;;;;;5014271;28;19925;-68
2021/03/12 15:52:32;;;;;;;;;;;11.20;92.90;;;;;;5014170;28;19925;-68
2021/03/12 15:54:58;;;;;;;;;;;11.00;93.00;;;;;;5014281;28;19926;-68
2021/03/12 15:57:24;;;;;;;;;;;10.80;92.90;;;;;;5014234;28;19926;-69
2021/03/12 15:59:50;;;;;;;;;;;10.70;93.40;;;;;;5014344;28;19925;-68
2021/03/12 16:02:17;;;;;;;;;;;10.70;94.00;;;;;;5014191;28;19925;-69
2021/03/12 16:04:43;;;;;;;;;;;10.70;94.90;;;;;;5014577;28;19951;-69
2021/03/12 16:07:09;;;;;;;;;;;10.50;94.30;;;;;;5014072;28;20281;-68
2021/03/12 16:09:35;;;;;;;;;;;10.50;94.00;;;;;;5014133;28;19932;-68
2021/03/12 16:12:02;;;;;;;;;;;10.40;93.70;;;;;;5013874;28;19933;-67
2021/03/12 16:14:28;;;;;;;;;;;10.30;93.30;;;;;;5014171;28;19932;-68
2021/03/12 16:16:54;;;;;;;;;;;10.20;94.10;;;;;;5014127;28;19925;-68
2021/03/12 16:19:21;;;;;;;;;;;10.10;94.20;;;;;;5014052;28;19926;-68
2021/03/12 16:21:47;;;;;;;;;;;10.10;94.10;;;;;;5014005;28;19933;-68
2021/03/12 16:24:14;;;;;;;;;;;10.10;94.00;;;;;;5014517;28;20284;-68
2021/03/12 16:26:44;;;;;;;;;;;10.10;98.70;;;;;;5014156;28;20023;-68
2021/03/12 16:29:10;;;;;;;;;;;10.10;94.70;;;;;;5014002;28;20035;-68
2021/03/12 16:31:36;;;;;;;;;;;10.10;95.30;;;;;;5014042;28;19941;-67
2021/03/12 16:34:02;;;;;;;;;;;10.10;95.60;;;;;;5013772;28;20026;-68
2021/03/12 16:36:29;;;;;;;;;;;10.10;95.70;;;;;;5013724;28;20385;-68
2021/03/12 16:38:55;;;;;;;;;;;10.10;95.90;;;;;;5013919;28;19934;-67
2021/03/12 16:41:21;;;;;;;;;;;10.10;95.80;;;;;;5013824;28;19933;-67
2021/03/12 16:43:47;;;;;;;;;;;10.10;96.20;;;;;;5017071;28;19925;-67
2021/03/12 16:46:13;;;;;;;;;;;10.20;96.80;;;;;;5017643;28;19925;-67
2021/03/12 16:48:39;;;;;;;;;;;10.10;97.10;;;;;;5017479;28;19930;-66
2021/03/12 16:51:06;;;;;;;;;;;10.00;97.40;;;;;;5017261;28;19926;-67
2021/03/12 16:53:33;;;;;;;;;;;10.00;98.20;;;;;;5016706;28;20012;-68
2021/03/12 16:56:00;;;;;;;;;;;10.00;99.10;;;;;;5017231;28;20405;-66
2021/03/12 16:58:26;;;;;;;;;;;9.80;99.90;;;;;;5017397;28;19964;-66
2021/03/12 17:00:52;;;;;;;;;;;9.80;99.90;;;;;;5017081;28;19932;-66
2021/03/12 17:03:18;;;;;;;;;;;9.70;99.90;;;;;;5017056;28;19926;-67
2021/03/12 17:05:44;;;;;;;;;;;9.70;99.90;;;;;;5017005;28;20300;-67
2021/03/12 17:08:10;;;;;;;;;;;9.70;99.90;;;;;;5017295;28;19925;-66
2021/03/12 17:10:37;;;;;;;;;;;9.70;99.90;;;;;;5016818;28;19930;-66
2021/03/12 17:13:03;;;;;;;;;;;9.70;99.90;;;;;;5016487;28;19932;-68
2021/03/12 17:15:29;;;;;;;;;;;9.80;99.90;;;;;;5017143;28;19936;-67
2021/03/12 17:17:55;;;;;;;;;;;9.70;99.90;;;;;;5016922;28;19930;-67
2021/03/12 17:20:21;;;;;;;;;;;9.70;99.90;;;;;;5016867;28;19926;-67
2021/03/12 17:22:47;;;;;;;;;;;9.60;99.90;;;;;;5016712;28;19925;-67
2021/03/12 17:25:14;;;;;;;;;;;9.60;99.90;;;;;;5016748;28;19926;-66
2021/03/12 17:27:41;;;;;;;;;;;9.50;99.90;;;;;;5023460;28;19930;-66
2021/03/12 17:30:09;;;;;;;;;;;9.50;99.90;;;;;;5021195;28;19932;-67
2021/03/12 17:32:35;;;;;;;;;;;9.40;99.90;;;;;;5016715;28;19925;-67
2021/03/12 17:35:01;;;;;;;;;;;9.30;99.90;;;;;;5017361;28;19926;-67
2021/03/12 17:37:27;;;;;;;;;;;9.30;99.90;;;;;;5016629;28;19926;-67
2021/03/12 17:39:53;;;;;;;;;;;9.20;99.90;;;;;;5016464;28;19926;-67
2021/03/12 17:42:19;;;;;;;;;;;9.20;99.90;;;;;;5016290;28;19925;-67
2021/03/12 17:44:46;;;;;;;;;;;9.30;99.90;;;;;;5016561;28;19926;-67
2021/03/12 17:47:12;;;;;;;;;;;9.20;99.90;;;;;;5015969;28;20377;-67
2021/03/12 17:49:38;;;;;;;;;;;9.30;99.90;;;;;;5015785;28;19926;-67
2021/03/12 17:52:05;;;;;;;;;;;9.30;99.90;;;;;;5016382;28;19932;-66
2021/03/12 17:54:31;;;;;;;;;;;9.20;99.90;;;;;;5015826;28;19926;-67
2021/03/12 17:56:57;;;;;;;;;;;9.30;99.90;;;;;;5015990;28;19925;-66
2021/03/12 17:59:23;;;;;;;;;;;9.20;99.90;;;;;;5016105;28;19925;-66
2021/03/12 18:01:50;;;;;;;;;;;9.10;99.90;;;;;;5015939;28;19925;-67
2021/03/12 18:04:16;;;;;;;;;;;9.00;99.90;;;;;;5016655;28;19925;-67
2021/03/12 18:08:20;;;;;;;;;;;9.00;99.90;;;;;;5113031;27;19912;-66
2021/03/12 18:10:47;;;;;;;;;;;8.90;99.90;;;;;;5112662;28;19931;-67
2021/03/12 18:13:13;;;;;;;;;;;8.90;99.90;;;;;;5115465;28;19931;-67
2021/03/12 18:15:40;;;;;;;;;;;8.90;99.90;;;;;;5131374;28;19924;-67
2021/03/12 18:18:06;;;;;;;;;;;8.90;99.90;;;;;;5130156;28;20011;-67
2021/03/12 18:20:32;;;;;;;;;;;8.90;99.90;;;;;;5072516;22;20271;-68
2021/03/12 18:22:59;;;;;;;;;;;8.90;99.90;;;;;;5054612;28;19932;-67
2021/03/12 18:25:26;;;;;;;;;;;8.90;99.90;;;;;;5053635;28;19929;-67
2021/03/12 18:27:52;;;;;;;;;;;8.90;99.90;;;;;;5053743;28;20004;-68
2021/03/12 18:30:20;;;;;;;;;;;8.90;99.90;;;;;;5054157;28;19925;-67
2021/03/12 18:32:48;;;;;;;;;;;8.90;99.90;;;;;;5055059;28;19970;-67
2021/03/12 18:35:14;;;;;;;;;;;8.80;99.90;;;;;;5054982;28;19925;-69
2021/03/12 18:37:41;;;;;;;;;;;8.80;99.90;;;;;;5054875;28;19925;-68
2021/03/12 18:40:07;;;;;;;;;;;8.80;99.90;;;;;;5053068;28;19932;-67
2021/03/12 18:42:34;;;;;;;;;;;8.70;99.90;;;;;;5052633;28;19925;-68
2021/03/12 18:45:01;;;;;;;;;;;8.80;99.90;;;;;;5053405;28;19925;-69
2021/03/12 18:47:27;;;;;;;;;;;8.70;99.90;;;;;;5053009;28;19925;-69
2021/03/12 18:49:53;;;;;;;;;;;8.70;99.90;;;;;;5053413;28;20319;-68
2021/03/12 18:52:19;;;;;;;;;;;8.70;99.90;;;;;;5053790;28;19994;-67
2021/03/12 18:54:45;;;;;;;;;;;8.60;99.90;;;;;;5053621;28;19932;-67
2021/03/12 18:57:11;;;;;;;;;;;8.60;99.90;;;;;;5053831;28;19932;-66
2021/03/12 18:59:38;;;;;;;;;;;8.60;99.90;;;;;;5054369;28;19948;-67
2021/03/12 19:02:05;;;;;;;;;;;8.60;99.90;;;;;;5053357;28;19925;-67
2021/03/12 19:04:31;;;;;;;;;;;8.60;99.90;;;;;;5053944;28;19925;-67
2021/03/12 19:06:57;;;;;;;;;;;8.60;99.90;;;;;;5053491;28;19975;-68
2021/03/12 19:09:23;;;;;;;;;;;8.50;99.90;;;;;;5052869;28;19932;-67
2021/03/12 19:11:49;;;;;;;;;;;8.60;99.90;;;;;;5051951;28;19949;-67
2021/03/12 19:14:16;;;;;;;;;;;8.60;99.90;;;;;;5052348;28;19925;-68
2021/03/12 19:16:42;;;;;;;;;;;8.60;99.90;;;;;;5052918;28;19925;-67
2021/03/12 19:19:09;;;;;;;;;;;8.60;99.90;;;;;;5042326;28;19937;-67
2021/03/12 19:21:38;;;;;;;;;;;8.70;99.90;;;;;;5039543;28;19932;-67
2021/03/12 19:24:04;;;;;;;;;;;8.70;99.90;;;;;;5039328;28;19952;-67
2021/03/12 19:26:30;;;;;;;;;;;8.70;99.90;;;;;;5039268;28;19925;-67